createdAt,value
2023-02-07T00:01:44.517Z,18.95
2023-02-07T00:04:16.513Z,16.02
2023-02-07T00:06:43.251Z,14.85
2023-02-07T00:09:12.391Z,16.42
2023-02-07T00:11:40.990Z,14.05
2023-02-07T00:14:09.851Z,14.45
2023-02-07T00:16:38.665Z,15.82
2023-02-07T00:19:05.688Z,15.02
2023-02-07T00:21:34.567Z,14.75
2023-02-07T00:24:04.071Z,13.57
2023-02-07T00:26:30.954Z,17.92
2023-02-07T00:28:59.927Z,16.98
2023-02-07T00:31:32.087Z,12.18
2023-02-07T00:34:01.607Z,13.50
2023-02-07T00:36:33.607Z,19.20
2023-02-07T00:39:03.324Z,17.90
2023-02-07T00:41:38.628Z,15.18
2023-02-07T00:44:05.853Z,17.15
2023-02-07T00:46:35.713Z,14.02
2023-02-07T00:49:05.921Z,13.27
2023-02-07T00:51:33.370Z,18.25
2023-02-07T00:54:04.759Z,17.00
2023-02-07T00:56:32.277Z,15.88
2023-02-07T00:59:01.471Z,14.82
2023-02-07T01:01:28.443Z,14.88
2023-02-07T01:03:55.485Z,13.00
2023-02-07T01:06:25.024Z,14.43
2023-02-07T01:09:00.449Z,16.35
2023-02-07T01:11:27.867Z,13.95
2023-02-07T01:13:55.006Z,16.75
2023-02-07T01:16:29.378Z,15.38
2023-02-07T01:18:56.627Z,16.30
2023-02-07T01:21:26.538Z,14.07
2023-02-07T01:23:58.584Z,14.77
2023-02-07T01:26:28.430Z,11.00
2023-02-07T01:28:57.691Z,12.52
2023-02-07T01:31:27.685Z,15.68
2023-02-07T01:33:58.689Z,14.02
2023-02-07T01:36:27.445Z,16.75
2023-02-07T01:38:54.827Z,18.05
2023-02-07T01:41:23.878Z,14.43
2023-02-07T01:44:04.450Z,15.00
2023-02-07T01:46:33.670Z,12.05
2023-02-07T01:49:14.935Z,13.15
2023-02-07T01:51:46.198Z,15.50
2023-02-07T01:54:19.088Z,16.38
2023-02-07T01:56:54.669Z,15.93
2023-02-07T01:59:22.792Z,17.48
2023-02-07T02:01:54.351Z,15.32
2023-02-07T02:04:21.554Z,16.00
2023-02-07T02:06:48.528Z,17.20
2023-02-07T02:09:18.631Z,18.15
2023-02-07T02:12:00.479Z,18.23
2023-02-07T02:14:54.357Z,17.85
2023-02-07T02:18:00.449Z,17.83
2023-02-07T02:20:45.758Z,19.52
2023-02-07T02:23:17.651Z,22.67
2023-02-07T02:25:44.405Z,15.80
2023-02-07T02:28:36.127Z,15.50
2023-02-07T02:31:05.986Z,15.65
2023-02-07T02:33:57.293Z,17.48
2023-02-07T02:36:44.709Z,20.83
2023-02-07T02:39:24.841Z,22.88
2023-02-07T02:42:27.661Z,19.27
2023-02-07T02:45:12.315Z,17.13
2023-02-07T02:47:45.404Z,19.45
2023-02-07T02:50:17.779Z,18.48
2023-02-07T02:52:50.720Z,16.83
2023-02-07T02:55:35.495Z,17.85
2023-02-07T02:58:25.352Z,15.30
2023-02-07T03:01:13.350Z,15.25
2023-02-07T03:03:48.987Z,18.33
2023-02-07T03:06:53.826Z,19.17
2023-02-07T03:09:41.920Z,18.20
2023-02-07T03:12:22.486Z,24.00
2023-02-07T03:14:57.769Z,19.05
2023-02-07T03:17:30.914Z,15.10
2023-02-07T03:20:09.522Z,18.00
2023-02-07T03:22:37.652Z,18.75
2023-02-07T03:25:08.447Z,17.63
2023-02-07T03:27:41.297Z,16.02
2023-02-07T03:30:13.537Z,15.32
2023-02-07T03:32:47.344Z,15.77
2023-02-07T03:35:30.761Z,18.23
2023-02-07T03:38:03.806Z,18.42
2023-02-07T03:40:38.215Z,18.67
2023-02-07T03:43:12.167Z,17.60
2023-02-07T03:45:41.008Z,19.48
2023-02-07T03:48:07.585Z,12.30
2023-02-07T03:50:36.649Z,19.02
2023-02-07T03:53:03.391Z,17.00
2023-02-07T03:55:30.044Z,21.35
2023-02-07T03:57:59.010Z,16.90
2023-02-07T04:00:25.653Z,18.40
2023-02-07T04:02:54.765Z,19.83
2023-02-07T04:05:21.337Z,14.48
2023-02-07T04:07:50.702Z,16.15
2023-02-07T04:10:19.922Z,15.52
2023-02-07T04:12:49.042Z,17.75
2023-02-07T04:15:15.578Z,17.90
2023-02-07T04:17:44.652Z,18.48
2023-02-07T04:20:14.900Z,18.30
2023-02-07T04:22:43.857Z,17.40
2023-02-07T04:25:12.626Z,16.45
2023-02-07T04:27:41.898Z,17.45
2023-02-07T04:30:09.229Z,17.15
2023-02-07T04:32:35.833Z,19.38
2023-02-07T04:35:07.207Z,14.95
2023-02-07T04:37:36.039Z,17.55
2023-02-07T04:40:02.644Z,16.90
2023-02-07T04:42:32.221Z,14.95
2023-02-07T04:44:58.819Z,16.40
2023-02-07T04:47:25.669Z,17.80
2023-02-07T04:49:52.290Z,16.50
2023-02-07T04:52:18.973Z,16.02
2023-02-07T04:54:47.998Z,18.52
2023-02-07T04:57:17.758Z,18.38
2023-02-07T04:59:46.861Z,15.27
2023-02-07T05:02:15.784Z,20.35
2023-02-07T05:04:42.444Z,17.95
2023-02-07T05:07:09.088Z,18.65
2023-02-07T05:09:37.902Z,18.95
2023-02-07T05:12:04.805Z,18.85
2023-02-07T05:14:31.784Z,17.83
2023-02-07T05:16:58.674Z,16.75
2023-02-07T05:19:28.014Z,15.18
2023-02-07T05:21:54.549Z,15.45
2023-02-07T05:24:21.274Z,16.92
2023-02-07T05:26:47.884Z,16.55
2023-02-07T05:29:21.811Z,17.02
2023-02-07T05:32:07.075Z,23.48
2023-02-07T05:34:33.772Z,17.42
2023-02-07T05:37:00.532Z,16.40
2023-02-07T05:39:29.552Z,16.70
2023-02-07T05:41:59.268Z,13.63
2023-02-07T05:44:25.942Z,20.65
2023-02-07T05:46:57.359Z,15.50
2023-02-07T05:49:24.097Z,15.15
2023-02-07T05:51:50.684Z,20.05
2023-02-07T05:54:17.257Z,15.52
2023-02-07T05:56:43.836Z,14.73
2023-02-07T05:59:12.810Z,16.10
2023-02-07T06:01:39.374Z,20.20
2023-02-07T06:04:06.147Z,22.17
2023-02-07T06:06:32.989Z,24.77
2023-02-07T06:08:59.625Z,19.08
2023-02-07T06:11:28.725Z,17.52
2023-02-07T06:13:55.300Z,20.25
2023-02-07T06:16:21.946Z,21.42
2023-02-07T06:18:48.531Z,19.20
2023-02-07T06:21:15.213Z,22.60
2023-02-07T06:23:43.964Z,20.20
2023-02-07T06:26:10.586Z,23.80
2023-02-07T06:28:37.258Z,22.70
2023-02-07T06:31:06.499Z,25.85
2023-02-07T06:33:37.918Z,19.88
2023-02-07T06:36:05.071Z,31.83
2023-02-07T06:38:31.939Z,16.40
2023-02-07T06:40:58.511Z,28.10
2023-02-07T06:43:27.453Z,19.15
2023-02-07T06:45:54.047Z,20.73
2023-02-07T06:48:20.745Z,17.83
2023-02-07T06:50:51.037Z,16.92
2023-02-07T06:53:17.906Z,19.90
2023-02-07T06:55:44.481Z,27.63
2023-02-07T06:58:11.071Z,20.23
2023-02-07T07:00:37.670Z,18.65
2023-02-07T07:03:08.721Z,18.30
2023-02-07T07:05:35.506Z,22.40
2023-02-07T07:08:02.300Z,15.70
2023-02-07T07:10:29.007Z,19.63
2023-02-07T07:12:58.212Z,20.23
2023-02-07T07:15:24.900Z,19.42
2023-02-07T07:17:51.775Z,20.63
2023-02-07T07:20:20.690Z,16.85
2023-02-07T07:22:48.981Z,21.15
2023-02-07T07:25:18.126Z,22.92
2023-02-07T07:27:44.789Z,19.55
2023-02-07T07:30:14.162Z,20.33
2023-02-07T07:32:40.923Z,22.90
2023-02-07T07:35:14.059Z,24.35
2023-02-07T07:37:43.208Z,22.90
2023-02-07T07:43:06.025Z,16.60
2023-02-07T07:45:52.837Z,21.63
2023-02-07T07:48:40.864Z,18.58
2023-02-07T07:53:41.689Z,18.77
2023-02-07T07:56:30.946Z,20.77
2023-02-07T07:59:06.059Z,21.17
2023-02-07T08:01:43.362Z,22.55
2023-02-07T08:04:10.046Z,21.55
2023-02-07T08:06:36.679Z,19.50
2023-02-07T08:09:06.460Z,23.15
2023-02-07T08:12:15.917Z,20.83
2023-02-07T08:14:42.526Z,20.58
2023-02-07T08:17:09.125Z,20.83
2023-02-07T08:19:38.802Z,20.27
2023-02-07T08:22:05.672Z,23.65
2023-02-07T08:24:33.985Z,18.92
2023-02-07T08:27:00.726Z,18.05
2023-02-07T08:29:46.752Z,20.02
2023-02-07T08:32:17.286Z,21.80
2023-02-07T08:35:23.852Z,20.77
2023-02-07T08:40:19.812Z,19.00
2023-02-07T08:42:46.429Z,18.13
2023-02-07T08:45:16.268Z,25.33
2023-02-07T08:47:45.592Z,25.20
2023-02-07T08:50:14.481Z,24.98
2023-02-07T08:52:41.565Z,25.58
2023-02-07T08:55:11.248Z,24.58
2023-02-07T08:57:38.183Z,22.48
2023-02-07T09:00:32.310Z,24.00
2023-02-07T09:03:29.232Z,22.60
2023-02-07T09:06:02.656Z,21.05
2023-02-07T09:08:29.686Z,26.08
2023-02-07T09:10:58.846Z,23.65
2023-02-07T09:13:25.596Z,21.55
2023-02-07T09:16:11.016Z,23.45
2023-02-07T09:18:41.644Z,27.58
2023-02-07T09:21:13.421Z,22.77
2023-02-07T09:23:40.248Z,21.13
2023-02-07T09:26:09.105Z,24.90
2023-02-07T09:28:41.287Z,22.13
2023-02-07T09:31:19.432Z,24.35
2023-02-07T09:33:49.380Z,21.50
2023-02-07T09:36:22.978Z,31.80
2023-02-07T09:41:57.821Z,20.30
2023-02-07T09:44:41.607Z,20.17
2023-02-07T09:47:15.713Z,20.42
2023-02-07T09:50:00.265Z,23.73
2023-02-07T09:52:57.677Z,19.95
2023-02-07T09:55:48.826Z,18.45
2023-02-07T09:58:32.453Z,21.60
2023-02-07T10:01:11.121Z,21.52
2023-02-07T10:03:57.674Z,25.15
2023-02-07T10:06:39.802Z,27.45
2023-02-07T10:09:14.321Z,22.98
2023-02-07T10:11:51.422Z,21.45
2023-02-07T10:14:36.818Z,25.65
2023-02-07T10:21:21.651Z,21.65
2023-02-07T10:24:09.616Z,22.25
2023-02-07T10:26:42.279Z,23.05
2023-02-07T10:29:18.939Z,24.33
2023-02-07T10:35:25.433Z,24.65
2023-02-07T10:37:55.933Z,22.30
2023-02-07T10:40:50.309Z,22.15
2023-02-07T10:43:33.487Z,20.15
2023-02-07T10:46:08.995Z,22.55
2023-02-07T10:51:23.787Z,18.10
2023-02-07T10:54:11.185Z,17.95
2023-02-07T10:56:43.005Z,19.52
2023-02-07T10:59:38.876Z,19.58
2023-02-07T11:03:20.760Z,16.02
2023-02-07T11:05:58.098Z,20.17
2023-02-07T11:08:33.601Z,19.45
2023-02-07T11:11:28.149Z,18.55
2023-02-07T11:13:57.658Z,18.60
2023-02-07T11:16:24.919Z,21.40
2023-02-07T11:19:00.468Z,22.25
2023-02-07T11:21:27.065Z,18.70
2023-02-07T11:27:29.499Z,20.95
2023-02-07T11:29:58.203Z,25.27
2023-02-07T11:32:28.853Z,20.33
2023-02-07T11:35:29.070Z,16.83
2023-02-07T11:38:18.041Z,22.38
2023-02-07T11:40:48.233Z,20.60
2023-02-07T11:43:16.267Z,25.63
2023-02-07T11:45:48.546Z,20.15
2023-02-07T11:48:21.191Z,21.20
2023-02-07T11:50:56.803Z,23.38
2023-02-07T11:56:25.191Z,26.60
2023-02-07T11:58:54.650Z,23.77
2023-02-07T12:04:03.335Z,18.55
2023-02-07T12:07:11.746Z,17.52
2023-02-07T12:10:02.124Z,18.45
2023-02-07T12:13:29.147Z,19.10
2023-02-07T12:16:04.326Z,19.35
2023-02-07T12:18:43.265Z,22.33
2023-02-07T12:21:35.870Z,22.90
2023-02-07T12:24:21.543Z,23.13
2023-02-07T12:26:53.888Z,22.33
2023-02-07T12:29:57.947Z,18.08
2023-02-07T12:32:34.927Z,18.92
2023-02-07T12:35:26.692Z,19.70
2023-02-07T12:37:53.195Z,22.58
2023-02-07T12:40:47.718Z,19.20
2023-02-07T12:43:45.679Z,17.98
2023-02-07T12:50:23.499Z,16.75
2023-02-07T12:53:37.145Z,19.17
2023-02-07T12:56:28.546Z,20.67
2023-02-07T14:31:11.210Z,20.85
2023-02-07T14:33:41.522Z,18.17
2023-02-07T14:36:13.852Z,21.35
2023-02-07T14:39:18.076Z,23.92
2023-02-07T14:41:49.468Z,18.98
2023-02-07T14:44:39.848Z,22.90
2023-02-07T14:47:15.687Z,25.08
2023-02-07T14:49:46.875Z,19.70
2023-02-07T14:52:33.761Z,19.50
2023-02-07T14:55:28.614Z,32.67
2023-02-07T15:44:49.185Z,23.00
2023-02-07T15:47:28.170Z,19.77
2023-02-07T15:50:24.233Z,20.77
2023-02-07T15:52:56.455Z,22.00
2023-02-07T15:55:37.515Z,41.05
2023-02-07T15:58:52.531Z,24.02
2023-02-07T16:01:10.603Z,20.60
2023-02-07T16:03:41.981Z,19.98
2023-02-07T16:06:15.585Z,20.67
2023-02-07T16:08:45.936Z,21.70
2023-02-07T16:11:34.346Z,24.73
2023-02-07T16:14:58.772Z,22.20
2023-02-07T16:17:42.569Z,20.80
2023-02-07T16:20:18.540Z,18.75
2023-02-07T16:25:43.748Z,47.58
2023-02-07T16:28:19.694Z,27.75
2023-02-07T16:30:52.411Z,21.00
2023-02-07T16:33:39.916Z,20.90
2023-02-07T16:36:10.494Z,19.95
2023-02-07T16:38:39.278Z,27.85
2023-02-07T16:41:49.899Z,24.63
2023-02-07T16:44:32.598Z,29.00
2023-02-07T16:46:59.176Z,24.85
2023-02-07T16:50:17.320Z,26.02
2023-02-07T16:52:44.143Z,22.70
2023-02-07T16:55:11.024Z,25.58
2023-02-07T16:57:40.920Z,20.50
2023-02-07T17:00:15.589Z,20.20
2023-02-07T17:02:43.316Z,23.95
2023-02-07T17:05:10.782Z,29.27
2023-02-07T17:08:38.039Z,32.28
2023-02-07T17:11:07.040Z,34.63
2023-02-07T17:13:33.874Z,31.88
2023-02-07T17:16:00.744Z,31.15
2023-02-07T17:18:29.858Z,27.08
2023-02-07T17:20:56.910Z,30.63
2023-02-07T17:23:28.761Z,31.15
2023-02-07T17:25:55.546Z,29.83
2023-02-07T17:28:24.716Z,27.77
2023-02-07T17:30:51.529Z,28.77
2023-02-07T17:33:18.284Z,30.45
2023-02-07T17:35:47.203Z,30.17
2023-02-07T17:38:16.480Z,28.33
2023-02-07T17:40:45.625Z,24.38
2023-02-07T17:43:14.632Z,27.63
2023-02-07T17:45:43.611Z,27.77
2023-02-07T17:48:12.710Z,27.25
2023-02-07T17:50:41.560Z,25.33
2023-02-07T17:53:11.551Z,25.83
2023-02-07T17:55:38.652Z,25.77
2023-02-07T17:58:05.694Z,25.85
2023-02-07T18:00:38.917Z,26.48
2023-02-07T18:03:09.029Z,25.75
2023-02-07T18:05:42.333Z,29.52
2023-02-07T18:08:15.996Z,28.85
2023-02-07T18:10:44.825Z,25.15
2023-02-07T18:13:11.699Z,28.88
2023-02-07T18:15:44.821Z,27.85
2023-02-07T18:18:13.977Z,27.77
2023-02-07T18:20:43.765Z,23.30
2023-02-07T18:23:13.446Z,28.88
2023-02-07T18:25:46.716Z,29.50
2023-02-07T18:28:14.659Z,29.75
2023-02-07T18:30:42.117Z,29.83
2023-02-07T18:33:17.151Z,30.00
2023-02-07T18:35:46.396Z,27.73
2023-02-07T18:38:18.246Z,28.70
2023-02-07T18:41:26.700Z,31.38
2023-02-07T18:44:12.481Z,26.58
2023-02-07T18:46:40.606Z,28.75
2023-02-07T18:49:09.997Z,28.63
2023-02-07T18:51:39.086Z,31.50
2023-02-07T18:54:06.639Z,40.13
2023-02-07T18:56:37.788Z,31.10
2023-02-07T18:59:07.342Z,40.50
2023-02-07T19:04:05.360Z,32.58
2023-02-07T19:06:34.084Z,34.33
2023-02-07T19:09:03.558Z,40.47
2023-02-07T19:13:59.274Z,30.70
2023-02-07T19:16:31.598Z,32.25
2023-02-07T19:18:58.972Z,31.67
2023-02-07T19:21:28.805Z,31.67
2023-02-07T19:23:56.981Z,32.92
2023-02-07T19:26:26.729Z,30.23
2023-02-07T19:28:55.984Z,30.88
2023-02-07T19:31:29.110Z,33.58
2023-02-07T19:33:59.440Z,29.40
2023-02-07T19:36:31.709Z,35.95
2023-02-07T19:38:59.440Z,34.67
2023-02-07T19:41:28.377Z,28.90
2023-02-07T19:43:55.530Z,32.65
2023-02-07T19:46:22.819Z,34.83
2023-02-07T19:48:50.289Z,33.13
2023-02-07T19:51:22.396Z,34.35
2023-02-07T19:53:51.309Z,31.27
2023-02-07T19:56:19.612Z,29.05
2023-02-07T19:58:53.303Z,33.60
2023-02-07T20:01:21.384Z,29.13
2023-02-07T20:03:52.695Z,32.45
2023-02-07T20:06:28.487Z,34.55
2023-02-07T20:08:59.466Z,35.65
2023-02-07T20:11:26.901Z,32.75
2023-02-07T20:13:55.904Z,36.53
2023-02-07T20:16:25.788Z,34.08
2023-02-07T20:18:53.581Z,28.23
2023-02-07T20:21:27.437Z,34.85
2023-02-07T20:23:58.029Z,40.83
2023-02-07T20:26:36.541Z,40.25
2023-02-07T20:29:10.113Z,44.15
2023-02-07T20:31:37.337Z,41.88
2023-02-07T20:34:04.052Z,43.50
2023-02-07T20:36:40.868Z,46.63
2023-02-07T20:39:21.099Z,44.83
2023-02-07T20:41:53.834Z,52.28
2023-02-07T20:44:23.289Z,44.75
2023-02-07T20:46:51.696Z,46.40
2023-02-07T20:49:22.042Z,36.70
2023-02-07T20:51:53.003Z,37.10
2023-02-07T20:54:25.049Z,34.78
2023-02-07T20:56:53.279Z,36.08
2023-02-07T20:59:30.916Z,33.08
2023-02-07T21:02:00.552Z,61.60
2023-02-07T21:06:54.734Z,72.63
2023-02-07T21:09:24.158Z,47.65
2023-02-07T21:11:52.504Z,38.70
2023-02-07T21:14:19.593Z,38.38
2023-02-07T21:16:49.156Z,45.70
2023-02-07T21:21:50.958Z,34.58
2023-02-07T21:24:21.394Z,37.10
2023-02-07T21:26:51.560Z,35.47
2023-02-07T21:29:18.788Z,37.75
2023-02-07T21:31:47.963Z,43.33
2023-02-07T21:34:21.308Z,32.58
2023-02-07T21:36:52.726Z,35.58
2023-02-07T21:39:24.414Z,39.17
2023-02-07T21:41:51.572Z,41.17
2023-02-07T21:44:21.260Z,39.63
2023-02-07T21:46:53.788Z,34.63
2023-02-07T21:49:25.816Z,32.40
2023-02-07T21:51:54.887Z,34.25
2023-02-07T21:54:26.368Z,32.95
2023-02-07T21:56:53.067Z,31.08
2023-02-07T21:59:20.974Z,30.33
2023-02-07T22:01:51.254Z,31.60
2023-02-07T22:04:22.956Z,33.50
2023-02-07T22:06:49.812Z,32.85
2023-02-07T22:09:20.702Z,32.70
2023-02-07T22:11:47.711Z,33.88
2023-02-07T22:14:15.595Z,33.15
2023-02-07T22:16:44.639Z,24.38
2023-02-07T22:19:13.228Z,27.20
2023-02-07T22:21:44.291Z,29.55
2023-02-07T22:24:12.932Z,35.75
2023-02-07T22:26:41.999Z,47.50
2023-02-07T22:29:09.463Z,37.88
2023-02-07T22:31:39.175Z,31.63
2023-02-07T22:34:13.747Z,39.25
2023-02-07T22:36:45.757Z,28.73
2023-02-07T22:39:17.163Z,28.77
2023-02-07T22:41:44.426Z,20.08
2023-02-07T22:44:11.010Z,25.00
2023-02-07T22:46:37.605Z,21.88
2023-02-07T22:49:06.395Z,24.25
2023-02-07T22:51:36.197Z,29.40
2023-02-07T22:56:36.592Z,29.92
2023-02-07T22:59:03.460Z,30.88
2023-02-07T23:01:35.073Z,30.23
2023-02-07T23:04:04.278Z,24.08
2023-02-07T23:06:33.517Z,23.35
2023-02-07T23:09:05.275Z,19.27
2023-02-07T23:11:34.433Z,23.58
2023-02-07T23:14:01.695Z,19.75
2023-02-07T23:16:30.245Z,20.80
2023-02-07T23:19:05.610Z,18.25
2023-02-07T23:21:34.473Z,20.50
2023-02-07T23:24:01.169Z,20.83
2023-02-07T23:26:28.005Z,22.92
2023-02-07T23:28:55.171Z,26.42
2023-02-07T23:31:23.702Z,30.52
2023-02-07T23:33:52.145Z,25.83
2023-02-07T23:36:19.663Z,27.25
2023-02-07T23:38:48.216Z,32.47
2023-02-07T23:41:18.285Z,25.48
2023-02-07T23:43:46.708Z,23.02
2023-02-07T23:46:15.001Z,31.67
2023-02-07T23:48:41.698Z,35.67
2023-02-07T23:51:08.518Z,32.67
2023-02-07T23:53:37.161Z,39.63
2023-02-07T23:56:05.593Z,33.55
2023-02-07T23:58:32.949Z,34.55
